sensor_id;sensor_type;location;lat;lon;timestamp;P1;durP1;ratioP1;P2;durP2;ratioP2
25327;SDS011;13279;51.300;12.394;2023-08-07T00:01:21;15.93;;;8.20;;
25327;SDS011;13279;51.300;12.394;2023-08-07T00:03:50;14.67;;;9.00;;
25327;SDS011;13279;51.300;12.394;2023-08-07T00:06:18;14.30;;;9.77;;
25327;SDS011;13279;51.300;12.394;2023-08-07T00:08:45;14.67;;;9.30;;
25327;SDS011;13279;51.300;12.394;2023-08-07T00:11:13;18.87;;;8.67;;
25327;SDS011;13279;51.300;12.394;2023-08-07T00:13:40;12.30;;;7.17;;
25327;SDS011;13279;51.300;12.394;2023-08-07T00:16:08;12.17;;;6.90;;
25327;SDS011;13279;51.300;12.394;2023-08-07T00:18:36;8.13;;;6.40;;
25327;SDS011;13279;51.300;12.394;2023-08-07T00:21:06;7.20;;;5.57;;
25327;SDS011;13279;51.300;12.394;2023-08-07T00:23:34;6.17;;;5.13;;
25327;SDS011;13279;51.300;12.394;2023-08-07T00:26:01;6.63;;;4.20;;
25327;SDS011;13279;51.300;12.394;2023-08-07T00:28:29;5.57;;;4.23;;
25327;SDS011;13279;51.300;12.394;2023-08-07T00:30:57;4.17;;;3.77;;
25327;SDS011;13279;51.300;12.394;2023-08-07T00:33:24;5.43;;;3.63;;
25327;SDS011;13279;51.300;12.394;2023-08-07T00:35:52;3.77;;;3.43;;
25327;SDS011;13279;51.300;12.394;2023-08-07T00:38:21;4.83;;;3.23;;
25327;SDS011;13279;51.300;12.394;2023-08-07T00:40:48;7.60;;;2.77;;
25327;SDS011;13279;51.300;12.394;2023-08-07T00:43:16;6.57;;;3.40;;
25327;SDS011;13279;51.300;12.394;2023-08-07T00:45:45;4.97;;;3.57;;
25327;SDS011;13279;51.300;12.394;2023-08-07T00:48:14;4.70;;;3.50;;
25327;SDS011;13279;51.300;12.394;2023-08-07T00:50:43;6.53;;;5.20;;
25327;SDS011;13279;51.300;12.394;2023-08-07T00:53:13;10.37;;;5.00;;
25327;SDS011;13279;51.300;12.394;2023-08-07T00:55:42;9.93;;;5.40;;
25327;SDS011;13279;51.300;12.394;2023-08-07T00:58:10;5.87;;;5.20;;
25327;SDS011;13279;51.300;12.394;2023-08-07T01:00:38;8.10;;;4.60;;
25327;SDS011;13279;51.300;12.394;2023-08-07T01:03:07;5.40;;;4.90;;
25327;SDS011;13279;51.300;12.394;2023-08-07T01:05:35;6.70;;;4.97;;
25327;SDS011;13279;51.300;12.394;2023-08-07T01:08:03;6.77;;;5.33;;
25327;SDS011;13279;51.300;12.394;2023-08-07T01:10:42;7.27;;;5.57;;
25327;SDS011;13279;51.300;12.394;2023-08-07T01:13:23;6.23;;;4.93;;
25327;SDS011;13279;51.300;12.394;2023-08-07T01:15:57;4.20;;;3.80;;
25327;SDS011;13279;51.300;12.394;2023-08-07T01:18:29;6.43;;;4.30;;
25327;SDS011;13279;51.300;12.394;2023-08-07T01:20:58;6.00;;;3.93;;
25327;SDS011;13279;51.300;12.394;2023-08-07T01:23:27;7.23;;;3.97;;
25327;SDS011;13279;51.300;12.394;2023-08-07T01:25:54;5.93;;;3.40;;
25327;SDS011;13279;51.300;12.394;2023-08-07T01:28:23;3.73;;;3.43;;
25327;SDS011;13279;51.300;12.394;2023-08-07T01:30:59;3.50;;;3.20;;
25327;SDS011;13279;51.300;12.394;2023-08-07T01:33:31;4.40;;;3.73;;
25327;SDS011;13279;51.300;12.394;2023-08-07T01:36:01;8.63;;;3.73;;
25327;SDS011;13279;51.300;12.394;2023-08-07T01:38:33;4.33;;;3.93;;
25327;SDS011;13279;51.300;12.394;2023-08-07T01:41:02;4.50;;;4.10;;
25327;SDS011;13279;51.300;12.394;2023-08-07T01:43:31;4.97;;;4.27;;
25327;SDS011;13279;51.300;12.394;2023-08-07T01:46:00;4.17;;;3.77;;
25327;SDS011;13279;51.300;12.394;2023-08-07T01:48:28;4.73;;;4.00;;
25327;SDS011;13279;51.300;12.394;2023-08-07T01:50:55;10.03;;;4.40;;
25327;SDS011;13279;51.300;12.394;2023-08-07T01:53:23;4.33;;;3.70;;
25327;SDS011;13279;51.300;12.394;2023-08-07T01:55:52;6.67;;;4.30;;
25327;SDS011;13279;51.300;12.394;2023-08-07T01:58:19;5.23;;;3.77;;
25327;SDS011;13279;51.300;12.394;2023-08-07T02:00:47;11.97;;;4.07;;
25327;SDS011;13279;51.300;12.394;2023-08-07T02:03:15;4.77;;;3.77;;
25327;SDS011;13279;51.300;12.394;2023-08-07T02:05:44;5.90;;;3.90;;
25327;SDS011;13279;51.300;12.394;2023-08-07T02:08:12;5.07;;;4.03;;
25327;SDS011;13279;51.300;12.394;2023-08-07T02:10:39;4.23;;;3.80;;
25327;SDS011;13279;51.300;12.394;2023-08-07T02:13:08;11.60;;;4.20;;
25327;SDS011;13279;51.300;12.394;2023-08-07T02:15:36;5.47;;;4.00;;
25327;SDS011;13279;51.300;12.394;2023-08-07T02:18:05;7.17;;;4.17;;
25327;SDS011;13279;51.300;12.394;2023-08-07T02:20:32;4.87;;;4.33;;
25327;SDS011;13279;51.300;12.394;2023-08-07T02:23:00;6.33;;;4.27;;
25327;SDS011;13279;51.300;12.394;2023-08-07T02:25:27;5.57;;;4.73;;
25327;SDS011;13279;51.300;12.394;2023-08-07T02:27:55;7.20;;;4.53;;
25327;SDS011;13279;51.300;12.394;2023-08-07T02:30:24;4.77;;;4.37;;
25327;SDS011;13279;51.300;12.394;2023-08-07T02:32:51;4.57;;;3.80;;
25327;SDS011;13279;51.300;12.394;2023-08-07T02:35:20;4.77;;;4.37;;
25327;SDS011;13279;51.300;12.394;2023-08-07T02:37:48;5.67;;;4.57;;
25327;SDS011;13279;51.300;12.394;2023-08-07T02:40:15;5.77;;;4.37;;
25327;SDS011;13279;51.300;12.394;2023-08-07T02:42:45;11.83;;;4.63;;
25327;SDS011;13279;51.300;12.394;2023-08-07T02:45:12;5.60;;;4.63;;
25327;SDS011;13279;51.300;12.394;2023-08-07T02:47:41;7.50;;;5.00;;
25327;SDS011;13279;51.300;12.394;2023-08-07T02:50:08;6.20;;;4.73;;
25327;SDS011;13279;51.300;12.394;2023-08-07T02:52:36;12.60;;;5.17;;
25327;SDS011;13279;51.300;12.394;2023-08-07T02:55:03;6.17;;;5.43;;
25327;SDS011;13279;51.300;12.394;2023-08-07T02:57:32;5.30;;;4.67;;
25327;SDS011;13279;51.300;12.394;2023-08-07T02:59:59;4.87;;;4.47;;
25327;SDS011;13279;51.300;12.394;2023-08-07T03:02:26;5.30;;;4.50;;
25327;SDS011;13279;51.300;12.394;2023-08-07T03:04:55;8.27;;;4.00;;
25327;SDS011;13279;51.300;12.394;2023-08-07T03:07:23;7.57;;;4.27;;
25327;SDS011;13279;51.300;12.394;2023-08-07T03:09:50;7.90;;;4.73;;
25327;SDS011;13279;51.300;12.394;2023-08-07T03:12:18;11.17;;;4.53;;
25327;SDS011;13279;51.300;12.394;2023-08-07T03:14:45;6.43;;;5.03;;
25327;SDS011;13279;51.300;12.394;2023-08-07T03:17:13;5.73;;;4.43;;
25327;SDS011;13279;51.300;12.394;2023-08-07T03:19:41;6.53;;;4.87;;
25327;SDS011;13279;51.300;12.394;2023-08-07T03:22:13;6.00;;;4.17;;
25327;SDS011;13279;51.300;12.394;2023-08-07T03:24:40;6.33;;;4.20;;
25327;SDS011;13279;51.300;12.394;2023-08-07T03:27:12;10.83;;;4.13;;
25327;SDS011;13279;51.300;12.394;2023-08-07T03:29:40;4.80;;;4.03;;
25327;SDS011;13279;51.300;12.394;2023-08-07T03:32:08;5.87;;;3.70;;
25327;SDS011;13279;51.300;12.394;2023-08-07T03:34:37;7.47;;;4.37;;
25327;SDS011;13279;51.300;12.394;2023-08-07T03:37:05;6.37;;;3.63;;
25327;SDS011;13279;51.300;12.394;2023-08-07T03:39:34;6.27;;;4.40;;
25327;SDS011;13279;51.300;12.394;2023-08-07T03:42:02;7.63;;;4.37;;
25327;SDS011;13279;51.300;12.394;2023-08-07T03:44:29;8.87;;;4.50;;
25327;SDS011;13279;51.300;12.394;2023-08-07T03:46:58;8.77;;;4.50;;
25327;SDS011;13279;51.300;12.394;2023-08-07T03:49:26;5.33;;;4.30;;
25327;SDS011;13279;51.300;12.394;2023-08-07T03:51:54;5.47;;;4.97;;
25327;SDS011;13279;51.300;12.394;2023-08-07T03:54:21;10.67;;;5.37;;
25327;SDS011;13279;51.300;12.394;2023-08-07T03:56:50;9.97;;;5.20;;
25327;SDS011;13279;51.300;12.394;2023-08-07T03:59:18;8.00;;;5.20;;
25327;SDS011;13279;51.300;12.394;2023-08-07T04:01:45;7.03;;;4.93;;
25327;SDS011;13279;51.300;12.394;2023-08-07T04:04:13;7.23;;;5.00;;
25327;SDS011;13279;51.300;12.394;2023-08-07T04:06:41;8.97;;;5.23;;
25327;SDS011;13279;51.300;12.394;2023-08-07T04:09:09;7.97;;;5.57;;
25327;SDS011;13279;51.300;12.394;2023-08-07T04:11:37;11.10;;;6.23;;
25327;SDS011;13279;51.300;12.394;2023-08-07T04:14:05;6.87;;;5.53;;
25327;SDS011;13279;51.300;12.394;2023-08-07T04:16:33;10.60;;;5.20;;
25327;SDS011;13279;51.300;12.394;2023-08-07T04:19:02;6.33;;;4.43;;
25327;SDS011;13279;51.300;12.394;2023-08-07T04:21:30;6.60;;;4.53;;
25327;SDS011;13279;51.300;12.394;2023-08-07T04:23:57;7.07;;;4.80;;
25327;SDS011;13279;51.300;12.394;2023-08-07T04:26:25;7.17;;;4.10;;
25327;SDS011;13279;51.300;12.394;2023-08-07T04:28:53;5.73;;;4.07;;
25327;SDS011;13279;51.300;12.394;2023-08-07T04:31:22;6.90;;;4.00;;
25327;SDS011;13279;51.300;12.394;2023-08-07T04:33:49;4.93;;;3.73;;
25327;SDS011;13279;51.300;12.394;2023-08-07T04:36:17;5.63;;;3.50;;
25327;SDS011;13279;51.300;12.394;2023-08-07T04:38:46;11.20;;;3.13;;
25327;SDS011;13279;51.300;12.394;2023-08-07T04:41:13;7.60;;;3.20;;
25327;SDS011;13279;51.300;12.394;2023-08-07T04:43:41;4.13;;;2.97;;
25327;SDS011;13279;51.300;12.394;2023-08-07T04:46:09;4.87;;;2.80;;
25327;SDS011;13279;51.300;12.394;2023-08-07T04:48:38;3.10;;;2.80;;
25327;SDS011;13279;51.300;12.394;2023-08-07T04:51:06;2.13;;;2.03;;
25327;SDS011;13279;51.300;12.394;2023-08-07T04:53:33;2.83;;;2.53;;
25327;SDS011;13279;51.300;12.394;2023-08-07T04:56:01;3.70;;;2.30;;
25327;SDS011;13279;51.300;12.394;2023-08-07T04:58:29;2.43;;;2.23;;
25327;SDS011;13279;51.300;12.394;2023-08-07T05:00:57;5.90;;;2.40;;
25327;SDS011;13279;51.300;12.394;2023-08-07T05:03:25;2.50;;;2.30;;
25327;SDS011;13279;51.300;12.394;2023-08-07T05:05:58;3.43;;;2.70;;
25327;SDS011;13279;51.300;12.394;2023-08-07T05:08:26;3.53;;;2.77;;
25327;SDS011;13279;51.300;12.394;2023-08-07T05:10:53;5.37;;;2.60;;
25327;SDS011;13279;51.300;12.394;2023-08-07T05:13:21;13.10;;;2.87;;
25327;SDS011;13279;51.300;12.394;2023-08-07T05:15:48;5.03;;;2.77;;
25327;SDS011;13279;51.300;12.394;2023-08-07T05:18:16;5.23;;;3.00;;
25327;SDS011;13279;51.300;12.394;2023-08-07T05:20:44;3.47;;;3.17;;
25327;SDS011;13279;51.300;12.394;2023-08-07T05:23:13;3.27;;;3.03;;
25327;SDS011;13279;51.300;12.394;2023-08-07T05:25:40;3.77;;;3.13;;
25327;SDS011;13279;51.300;12.394;2023-08-07T05:28:08;4.80;;;2.63;;
25327;SDS011;13279;51.300;12.394;2023-08-07T05:30:35;3.47;;;2.90;;
25327;SDS011;13279;51.300;12.394;2023-08-07T05:33:03;7.33;;;2.27;;
25327;SDS011;13279;51.300;12.394;2023-08-07T05:35:30;2.83;;;2.30;;
25327;SDS011;13279;51.300;12.394;2023-08-07T05:37:57;4.20;;;2.37;;
25327;SDS011;13279;51.300;12.394;2023-08-07T05:40:26;4.87;;;2.33;;
25327;SDS011;13279;51.300;12.394;2023-08-07T05:42:55;4.67;;;2.70;;
25327;SDS011;13279;51.300;12.394;2023-08-07T05:45:22;5.30;;;3.20;;
25327;SDS011;13279;51.300;12.394;2023-08-07T05:47:49;5.33;;;3.40;;
25327;SDS011;13279;51.300;12.394;2023-08-07T05:50:17;3.63;;;3.33;;
25327;SDS011;13279;51.300;12.394;2023-08-07T05:52:44;3.50;;;3.20;;
25327;SDS011;13279;51.300;12.394;2023-08-07T05:55:11;12.60;;;3.40;;
25327;SDS011;13279;51.300;12.394;2023-08-07T05:57:40;4.77;;;2.97;;
25327;SDS011;13279;51.300;12.394;2023-08-07T06:00:08;8.07;;;3.30;;
25327;SDS011;13279;51.300;12.394;2023-08-07T06:02:39;2.73;;;2.53;;
25327;SDS011;13279;51.300;12.394;2023-08-07T06:05:07;4.67;;;3.13;;
25327;SDS011;13279;51.300;12.394;2023-08-07T06:07:37;2.73;;;2.53;;
25327;SDS011;13279;51.300;12.394;2023-08-07T06:10:05;4.70;;;2.67;;
25327;SDS011;13279;51.300;12.394;2023-08-07T06:12:33;5.03;;;2.43;;
25327;SDS011;13279;51.300;12.394;2023-08-07T06:15:02;3.70;;;2.70;;
25327;SDS011;13279;51.300;12.394;2023-08-07T06:17:30;6.40;;;2.97;;
25327;SDS011;13279;51.300;12.394;2023-08-07T06:19:57;3.50;;;2.37;;
25327;SDS011;13279;51.300;12.394;2023-08-07T06:22:25;5.10;;;2.63;;
25327;SDS011;13279;51.300;12.394;2023-08-07T06:24:52;6.10;;;2.90;;
25327;SDS011;13279;51.300;12.394;2023-08-07T06:27:20;3.73;;;2.67;;
25327;SDS011;13279;51.300;12.394;2023-08-07T06:29:47;2.77;;;2.33;;
25327;SDS011;13279;51.300;12.394;2023-08-07T06:32:17;2.80;;;2.60;;
25327;SDS011;13279;51.300;12.394;2023-08-07T06:34:44;3.77;;;2.50;;
25327;SDS011;13279;51.300;12.394;2023-08-07T06:37:11;3.00;;;2.10;;
25327;SDS011;13279;51.300;12.394;2023-08-07T06:39:39;2.40;;;2.20;;
25327;SDS011;13279;51.300;12.394;2023-08-07T06:42:07;3.23;;;2.10;;
25327;SDS011;13279;51.300;12.394;2023-08-07T06:44:35;3.67;;;2.17;;
25327;SDS011;13279;51.300;12.394;2023-08-07T06:47:03;5.03;;;1.90;;
25327;SDS011;13279;51.300;12.394;2023-08-07T06:49:32;3.03;;;2.40;;
25327;SDS011;13279;51.300;12.394;2023-08-07T06:51:59;4.60;;;1.80;;
25327;SDS011;13279;51.300;12.394;2023-08-07T06:54:27;5.33;;;1.90;;
25327;SDS011;13279;51.300;12.394;2023-08-07T06:56:55;1.70;;;1.60;;
25327;SDS011;13279;51.300;12.394;2023-08-07T06:59:22;3.60;;;1.73;;
25327;SDS011;13279;51.300;12.394;2023-08-07T07:01:51;1.83;;;1.70;;
25327;SDS011;13279;51.300;12.394;2023-08-07T07:04:18;1.37;;;1.20;;
25327;SDS011;13279;51.300;12.394;2023-08-07T07:06:47;2.83;;;1.30;;
25327;SDS011;13279;51.300;12.394;2023-08-07T07:09:14;2.20;;;1.10;;
25327;SDS011;13279;51.300;12.394;2023-08-07T07:11:43;2.00;;;1.10;;
25327;SDS011;13279;51.300;12.394;2023-08-07T07:14:10;1.10;;;1.00;;
25327;SDS011;13279;51.300;12.394;2023-08-07T07:16:37;2.70;;;1.20;;
25327;SDS011;13279;51.300;12.394;2023-08-07T07:19:05;1.57;;;1.20;;
25327;SDS011;13279;51.300;12.394;2023-08-07T07:21:34;3.37;;;1.10;;
25327;SDS011;13279;51.300;12.394;2023-08-07T07:24:03;1.20;;;1.10;;
25327;SDS011;13279;51.300;12.394;2023-08-07T07:26:31;2.53;;;0.93;;
25327;SDS011;13279;51.300;12.394;2023-08-07T07:28:58;2.53;;;0.90;;
25327;SDS011;13279;51.300;12.394;2023-08-07T07:31:26;4.00;;;0.90;;
25327;SDS011;13279;51.300;12.394;2023-08-07T07:33:53;2.63;;;1.13;;
25327;SDS011;13279;51.300;12.394;2023-08-07T07:36:20;1.93;;;1.03;;
25327;SDS011;13279;51.300;12.394;2023-08-07T07:38:48;2.67;;;1.10;;
25327;SDS011;13279;51.300;12.394;2023-08-07T07:41:17;0.90;;;0.90;;
25327;SDS011;13279;51.300;12.394;2023-08-07T07:43:44;1.27;;;1.17;;
25327;SDS011;13279;51.300;12.394;2023-08-07T07:46:13;1.10;;;1.07;;
25327;SDS011;13279;51.300;12.394;2023-08-07T07:48:40;1.00;;;1.00;;
25327;SDS011;13279;51.300;12.394;2023-08-07T07:51:08;1.33;;;1.13;;
25327;SDS011;13279;51.300;12.394;2023-08-07T07:53:35;1.40;;;1.00;;
25327;SDS011;13279;51.300;12.394;2023-08-07T07:56:03;0.70;;;0.70;;
25327;SDS011;13279;51.300;12.394;2023-08-07T07:58:32;6.60;;;0.93;;
25327;SDS011;13279;51.300;12.394;2023-08-07T08:00:59;0.80;;;0.80;;
25327;SDS011;13279;51.300;12.394;2023-08-07T08:03:27;1.40;;;1.00;;
25327;SDS011;13279;51.300;12.394;2023-08-07T08:05:54;3.33;;;0.87;;
25327;SDS011;13279;51.300;12.394;2023-08-07T08:08:23;0.90;;;0.90;;
25327;SDS011;13279;51.300;12.394;2023-08-07T08:10:50;3.50;;;1.07;;
25327;SDS011;13279;51.300;12.394;2023-08-07T08:13:18;1.33;;;0.80;;
25327;SDS011;13279;51.300;12.394;2023-08-07T08:15:47;1.50;;;0.93;;
25327;SDS011;13279;51.300;12.394;2023-08-07T08:18:14;2.53;;;0.80;;
25327;SDS011;13279;51.300;12.394;2023-08-07T08:20:42;1.27;;;0.60;;
25327;SDS011;13279;51.300;12.394;2023-08-07T08:23:09;1.70;;;0.60;;
25327;SDS011;13279;51.300;12.394;2023-08-07T08:25:37;0.80;;;0.80;;
25327;SDS011;13279;51.300;12.394;2023-08-07T08:28:05;2.63;;;1.43;;
25327;SDS011;13279;51.300;12.394;2023-08-07T08:30:33;0.90;;;0.90;;
25327;SDS011;13279;51.300;12.394;2023-08-07T08:33:01;1.93;;;1.03;;
25327;SDS011;13279;51.300;12.394;2023-08-07T08:35:30;3.37;;;0.80;;
25327;SDS011;13279;51.300;12.394;2023-08-07T08:37:58;0.93;;;0.70;;
25327;SDS011;13279;51.300;12.394;2023-08-07T08:40:25;1.63;;;0.67;;
25327;SDS011;13279;51.300;12.394;2023-08-07T08:42:52;0.87;;;0.87;;
25327;SDS011;13279;51.300;12.394;2023-08-07T08:45:23;1.13;;;0.80;;
25327;SDS011;13279;51.300;12.394;2023-08-07T08:47:54;0.80;;;0.80;;
25327;SDS011;13279;51.300;12.394;2023-08-07T08:50:27;0.60;;;0.50;;
25327;SDS011;13279;51.300;12.394;2023-08-07T08:52:56;1.10;;;1.00;;
25327;SDS011;13279;51.300;12.394;2023-08-07T08:55:23;1.73;;;1.00;;
25327;SDS011;13279;51.300;12.394;2023-08-07T08:57:52;1.10;;;1.00;;
25327;SDS011;13279;51.300;12.394;2023-08-07T09:00:20;1.17;;;0.80;;
25327;SDS011;13279;51.300;12.394;2023-08-07T09:02:51;3.00;;;1.27;;
25327;SDS011;13279;51.300;12.394;2023-08-07T09:05:19;1.10;;;1.00;;
25327;SDS011;13279;51.300;12.394;2023-08-07T09:07:49;0.90;;;0.90;;
25327;SDS011;13279;51.300;12.394;2023-08-07T09:10:16;1.10;;;1.10;;
25327;SDS011;13279;51.300;12.394;2023-08-07T09:12:45;1.03;;;0.93;;
25327;SDS011;13279;51.300;12.394;2023-08-07T09:15:17;1.50;;;0.60;;
25327;SDS011;13279;51.300;12.394;2023-08-07T09:17:46;0.73;;;0.73;;
25327;SDS011;13279;51.300;12.394;2023-08-07T09:20:14;0.83;;;0.83;;
25327;SDS011;13279;51.300;12.394;2023-08-07T09:22:42;2.20;;;1.03;;
25327;SDS011;13279;51.300;12.394;2023-08-07T09:25:11;1.70;;;0.80;;
25327;SDS011;13279;51.300;12.394;2023-08-07T09:27:38;1.93;;;0.93;;
25327;SDS011;13279;51.300;12.394;2023-08-07T09:30:07;0.80;;;0.80;;
25327;SDS011;13279;51.300;12.394;2023-08-07T09:32:35;0.77;;;0.77;;
25327;SDS011;13279;51.300;12.394;2023-08-07T09:35:05;3.93;;;0.77;;
25327;SDS011;13279;51.300;12.394;2023-08-07T09:37:33;1.23;;;0.93;;
25327;SDS011;13279;51.300;12.394;2023-08-07T09:40:04;1.33;;;0.87;;
25327;SDS011;13279;51.300;12.394;2023-08-07T09:42:38;3.03;;;0.90;;
25327;SDS011;13279;51.300;12.394;2023-08-07T09:45:16;1.30;;;0.90;;
25327;SDS011;13279;51.300;12.394;2023-08-07T09:47:46;1.63;;;0.97;;
25327;SDS011;13279;51.300;12.394;2023-08-07T09:50:24;3.20;;;0.80;;
25327;SDS011;13279;51.300;12.394;2023-08-07T09:52:52;0.77;;;0.57;;
25327;SDS011;13279;51.300;12.394;2023-08-07T09:55:20;0.57;;;0.57;;
25327;SDS011;13279;51.300;12.394;2023-08-07T09:57:49;0.70;;;0.70;;
25327;SDS011;13279;51.300;12.394;2023-08-07T10:00:16;0.40;;;0.40;;
25327;SDS011;13279;51.300;12.394;2023-08-07T10:02:45;0.63;;;0.53;;
25327;SDS011;13279;51.300;12.394;2023-08-07T10:05:14;0.60;;;0.50;;
25327;SDS011;13279;51.300;12.394;2023-08-07T10:07:42;1.57;;;0.53;;
25327;SDS011;13279;51.300;12.394;2023-08-07T10:10:10;1.30;;;0.57;;
25327;SDS011;13279;51.300;12.394;2023-08-07T10:12:37;0.30;;;0.30;;
25327;SDS011;13279;51.300;12.394;2023-08-07T10:15:07;0.40;;;0.40;;
25327;SDS011;13279;51.300;12.394;2023-08-07T10:17:36;2.97;;;0.63;;
25327;SDS011;13279;51.300;12.394;2023-08-07T10:20:03;2.80;;;0.60;;
25327;SDS011;13279;51.300;12.394;2023-08-07T10:22:33;0.40;;;0.40;;
25327;SDS011;13279;51.300;12.394;2023-08-07T10:25:05;1.20;;;0.50;;
25327;SDS011;13279;51.300;12.394;2023-08-07T10:27:33;0.53;;;0.53;;
25327;SDS011;13279;51.300;12.394;2023-08-07T10:30:05;1.17;;;0.70;;
25327;SDS011;13279;51.300;12.394;2023-08-07T10:32:38;0.40;;;0.40;;
25327;SDS011;13279;51.300;12.394;2023-08-07T10:35:06;0.40;;;0.30;;
25327;SDS011;13279;51.300;12.394;2023-08-07T10:37:41;1.10;;;0.40;;
25327;SDS011;13279;51.300;12.394;2023-08-07T10:40:09;0.50;;;0.50;;
25327;SDS011;13279;51.300;12.394;2023-08-07T10:42:56;1.53;;;1.00;;
25327;SDS011;13279;51.300;12.394;2023-08-07T10:45:26;0.53;;;0.53;;
25327;SDS011;13279;51.300;12.394;2023-08-07T10:48:01;0.70;;;0.70;;
25327;SDS011;13279;51.300;12.394;2023-08-07T10:50:32;0.50;;;0.50;;
25327;SDS011;13279;51.300;12.394;2023-08-07T10:53:00;0.87;;;0.53;;
25327;SDS011;13279;51.300;12.394;2023-08-07T10:55:32;0.83;;;0.40;;
25327;SDS011;13279;51.300;12.394;2023-08-07T10:58:20;0.60;;;0.60;;
25327;SDS011;13279;51.300;12.394;2023-08-07T11:00:51;0.40;;;0.40;;
25327;SDS011;13279;51.300;12.394;2023-08-07T11:03:40;0.57;;;0.57;;
25327;SDS011;13279;51.300;12.394;2023-08-07T11:06:08;0.80;;;0.80;;
25327;SDS011;13279;51.300;12.394;2023-08-07T11:08:36;0.50;;;0.50;;
25327;SDS011;13279;51.300;12.394;2023-08-07T11:11:04;0.50;;;0.50;;
25327;SDS011;13279;51.300;12.394;2023-08-07T11:13:32;1.33;;;0.50;;
25327;SDS011;13279;51.300;12.394;2023-08-07T11:16:01;1.40;;;0.70;;
25327;SDS011;13279;51.300;12.394;2023-08-07T11:18:30;0.73;;;0.73;;
25327;SDS011;13279;51.300;12.394;2023-08-07T11:20:58;2.37;;;0.90;;
25327;SDS011;13279;51.300;12.394;2023-08-07T11:23:27;0.73;;;0.73;;
25327;SDS011;13279;51.300;12.394;2023-08-07T11:25:54;0.63;;;0.63;;
25327;SDS011;13279;51.300;12.394;2023-08-07T11:28:23;0.70;;;0.60;;
25327;SDS011;13279;51.300;12.394;2023-08-07T11:30:51;2.47;;;1.00;;
25327;SDS011;13279;51.300;12.394;2023-08-07T11:33:22;0.70;;;0.70;;
25327;SDS011;13279;51.300;12.394;2023-08-07T11:35:51;0.57;;;0.57;;
25327;SDS011;13279;51.300;12.394;2023-08-07T11:38:31;0.40;;;0.40;;
25327;SDS011;13279;51.300;12.394;2023-08-07T11:41:00;1.63;;;0.80;;
25327;SDS011;13279;51.300;12.394;2023-08-07T11:43:28;0.60;;;0.50;;
25327;SDS011;13279;51.300;12.394;2023-08-07T11:45:57;2.03;;;0.73;;
25327;SDS011;13279;51.300;12.394;2023-08-07T11:48:27;1.60;;;0.70;;
25327;SDS011;13279;51.300;12.394;2023-08-07T11:50:56;3.90;;;0.70;;
25327;SDS011;13279;51.300;12.394;2023-08-07T11:53:24;3.10;;;0.67;;
25327;SDS011;13279;51.300;12.394;2023-08-07T11:55:55;0.97;;;0.67;;
25327;SDS011;13279;51.300;12.394;2023-08-07T11:58:24;1.33;;;0.33;;
25327;SDS011;13279;51.300;12.394;2023-08-07T12:00:52;1.23;;;0.50;;
25327;SDS011;13279;51.300;12.394;2023-08-07T12:03:28;0.83;;;0.60;;
25327;SDS011;13279;51.300;12.394;2023-08-07T12:05:57;0.40;;;0.40;;
25327;SDS011;13279;51.300;12.394;2023-08-07T12:08:30;1.90;;;0.50;;
25327;SDS011;13279;51.300;12.394;2023-08-07T12:11:00;0.37;;;0.37;;
25327;SDS011;13279;51.300;12.394;2023-08-07T12:13:30;1.90;;;0.30;;
25327;SDS011;13279;51.300;12.394;2023-08-07T12:16:00;0.53;;;0.33;;
25327;SDS011;13279;51.300;12.394;2023-08-07T12:18:30;0.47;;;0.40;;
25327;SDS011;13279;51.300;12.394;2023-08-07T12:20:59;1.17;;;0.40;;
25327;SDS011;13279;51.300;12.394;2023-08-07T12:23:27;0.83;;;0.67;;
25327;SDS011;13279;51.300;12.394;2023-08-07T12:25:54;0.40;;;0.40;;
25327;SDS011;13279;51.300;12.394;2023-08-07T12:28:22;0.60;;;0.60;;
25327;SDS011;13279;51.300;12.394;2023-08-07T12:30:50;1.10;;;0.60;;
25327;SDS011;13279;51.300;12.394;2023-08-07T12:33:18;0.60;;;0.60;;
25327;SDS011;13279;51.300;12.394;2023-08-07T12:35:47;1.30;;;0.70;;
25327;SDS011;13279;51.300;12.394;2023-08-07T12:38:14;3.10;;;1.00;;
25327;SDS011;13279;51.300;12.394;2023-08-07T12:40:43;0.70;;;0.60;;
25327;SDS011;13279;51.300;12.394;2023-08-07T12:43:10;0.60;;;0.40;;
25327;SDS011;13279;51.300;12.394;2023-08-07T12:45:38;2.97;;;0.40;;
25327;SDS011;13279;51.300;12.394;2023-08-07T12:48:05;0.40;;;0.30;;
25327;SDS011;13279;51.300;12.394;2023-08-07T12:50:33;3.33;;;0.50;;
25327;SDS011;13279;51.300;12.394;2023-08-07T12:53:02;4.67;;;0.50;;
25327;SDS011;13279;51.300;12.394;2023-08-07T12:55:30;0.60;;;0.40;;
25327;SDS011;13279;51.300;12.394;2023-08-07T12:57:57;1.37;;;0.50;;
25327;SDS011;13279;51.300;12.394;2023-08-07T13:00:24;0.77;;;0.47;;
25327;SDS011;13279;51.300;12.394;2023-08-07T13:02:52;1.90;;;0.60;;
25327;SDS011;13279;51.300;12.394;2023-08-07T13:05:21;1.13;;;0.70;;
25327;SDS011;13279;51.300;12.394;2023-08-07T13:07:48;0.67;;;0.63;;
25327;SDS011;13279;51.300;12.394;2023-08-07T13:10:20;1.53;;;0.70;;
25327;SDS011;13279;51.300;12.394;2023-08-07T13:12:48;5.67;;;0.70;;
25327;SDS011;13279;51.300;12.394;2023-08-07T13:15:16;0.87;;;0.87;;
25327;SDS011;13279;51.300;12.394;2023-08-07T13:17:44;0.57;;;0.50;;
25327;SDS011;13279;51.300;12.394;2023-08-07T13:20:12;1.20;;;0.80;;
25327;SDS011;13279;51.300;12.394;2023-08-07T13:22:40;0.80;;;0.60;;
25327;SDS011;13279;51.300;12.394;2023-08-07T13:25:09;0.50;;;0.40;;
25327;SDS011;13279;51.300;12.394;2023-08-07T13:27:38;0.77;;;0.30;;
25327;SDS011;13279;51.300;12.394;2023-08-07T13:30:07;0.60;;;0.50;;
25327;SDS011;13279;51.300;12.394;2023-08-07T13:32:35;1.53;;;0.60;;
25327;SDS011;13279;51.300;12.394;2023-08-07T13:35:03;0.40;;;0.40;;
25327;SDS011;13279;51.300;12.394;2023-08-07T13:37:31;0.47;;;0.43;;
25327;SDS011;13279;51.300;12.394;2023-08-07T13:39:59;0.63;;;0.57;;
25327;SDS011;13279;51.300;12.394;2023-08-07T13:42:29;2.07;;;0.60;;
25327;SDS011;13279;51.300;12.394;2023-08-07T13:44:58;5.07;;;0.77;;
25327;SDS011;13279;51.300;12.394;2023-08-07T13:47:25;1.93;;;0.60;;
25327;SDS011;13279;51.300;12.394;2023-08-07T13:49:53;1.33;;;0.50;;
25327;SDS011;13279;51.300;12.394;2023-08-07T13:52:20;1.13;;;0.50;;
25327;SDS011;13279;51.300;12.394;2023-08-07T13:54:48;1.07;;;0.50;;
25327;SDS011;13279;51.300;12.394;2023-08-07T13:57:15;0.70;;;0.60;;
25327;SDS011;13279;51.300;12.394;2023-08-07T13:59:42;2.20;;;0.70;;
25327;SDS011;13279;51.300;12.394;2023-08-07T14:02:11;3.13;;;0.90;;
25327;SDS011;13279;51.300;12.394;2023-08-07T14:04:39;1.43;;;0.70;;
25327;SDS011;13279;51.300;12.394;2023-08-07T14:07:11;4.00;;;0.80;;
25327;SDS011;13279;51.300;12.394;2023-08-07T14:09:38;1.47;;;0.70;;
25327;SDS011;13279;51.300;12.394;2023-08-07T14:12:06;3.47;;;0.70;;
25327;SDS011;13279;51.300;12.394;2023-08-07T14:14:34;2.83;;;1.00;;
25327;SDS011;13279;51.300;12.394;2023-08-07T14:17:02;1.97;;;0.83;;
25327;SDS011;13279;51.300;12.394;2023-08-07T14:19:31;1.23;;;0.70;;
25327;SDS011;13279;51.300;12.394;2023-08-07T14:21:58;3.50;;;1.10;;
25327;SDS011;13279;51.300;12.394;2023-08-07T14:24:26;2.43;;;0.90;;
25327;SDS011;13279;51.300;12.394;2023-08-07T14:26:54;2.23;;;0.60;;
25327;SDS011;13279;51.300;12.394;2023-08-07T14:29:21;1.43;;;0.77;;
25327;SDS011;13279;51.300;12.394;2023-08-07T14:31:49;3.63;;;1.20;;
25327;SDS011;13279;51.300;12.394;2023-08-07T14:34:16;1.27;;;0.80;;
25327;SDS011;13279;51.300;12.394;2023-08-07T14:36:45;4.03;;;0.83;;
25327;SDS011;13279;51.300;12.394;2023-08-07T14:39:12;2.53;;;1.07;;
25327;SDS011;13279;51.300;12.394;2023-08-07T14:41:40;3.37;;;1.20;;